sensor_id;sensor_type;location;lat;lon;timestamp;P1;durP1;ratioP1;P2;durP2;ratioP2
13611;SDS011;6877;51.436;6.774;2023-04-23T00:01:43;74.57;;;37.75;;
13611;SDS011;6877;51.436;6.774;2023-04-23T00:04:11;75.43;;;36.53;;
13611;SDS011;6877;51.436;6.774;2023-04-23T00:06:44;71.65;;;35.83;;
13611;SDS011;6877;51.436;6.774;2023-04-23T00:09:17;70.07;;;37.47;;
13611;SDS011;6877;51.436;6.774;2023-04-23T00:11:44;72.72;;;36.03;;
13611;SDS011;6877;51.436;6.774;2023-04-23T00:14:15;70.10;;;35.10;;
13611;SDS011;6877;51.436;6.774;2023-04-23T00:16:42;60.08;;;32.08;;
13611;SDS011;6877;51.436;6.774;2023-04-23T00:19:08;67.65;;;34.53;;
13611;SDS011;6877;51.436;6.774;2023-04-23T00:21:35;65.65;;;31.67;;
13611;SDS011;6877;51.436;6.774;2023-04-23T00:24:01;68.78;;;35.97;;
13611;SDS011;6877;51.436;6.774;2023-04-23T00:26:28;76.40;;;36.95;;
13611;SDS011;6877;51.436;6.774;2023-04-23T00:28:59;69.32;;;34.38;;
13611;SDS011;6877;51.436;6.774;2023-04-23T00:31:25;69.05;;;34.28;;
13611;SDS011;6877;51.436;6.774;2023-04-23T00:33:52;77.60;;;36.85;;
13611;SDS011;6877;51.436;6.774;2023-04-23T00:36:24;74.90;;;35.38;;
13611;SDS011;6877;51.436;6.774;2023-04-23T00:38:56;79.40;;;37.30;;
13611;SDS011;6877;51.436;6.774;2023-04-23T00:41:22;62.90;;;34.40;;
13611;SDS011;6877;51.436;6.774;2023-04-23T00:43:49;73.20;;;35.33;;
13611;SDS011;6877;51.436;6.774;2023-04-23T00:46:24;72.07;;;36.80;;
13611;SDS011;6877;51.436;6.774;2023-04-23T00:48:51;68.57;;;34.17;;
13611;SDS011;6877;51.436;6.774;2023-04-23T00:51:23;62.38;;;33.58;;
13611;SDS011;6877;51.436;6.774;2023-04-23T00:53:50;68.40;;;35.20;;
13611;SDS011;6877;51.436;6.774;2023-04-23T00:56:16;65.82;;;33.63;;
13611;SDS011;6877;51.436;6.774;2023-04-23T00:58:48;67.25;;;36.83;;
13611;SDS011;6877;51.436;6.774;2023-04-23T01:01:17;63.67;;;32.58;;
13611;SDS011;6877;51.436;6.774;2023-04-23T01:03:48;64.45;;;34.20;;
13611;SDS011;6877;51.436;6.774;2023-04-23T01:06:22;68.88;;;34.38;;
13611;SDS011;6877;51.436;6.774;2023-04-23T01:08:55;63.78;;;35.17;;
13611;SDS011;6877;51.436;6.774;2023-04-23T01:11:21;70.40;;;34.63;;
13611;SDS011;6877;51.436;6.774;2023-04-23T01:13:48;63.28;;;32.80;;
13611;SDS011;6877;51.436;6.774;2023-04-23T01:16:15;64.25;;;33.38;;
13611;SDS011;6877;51.436;6.774;2023-04-23T01:18:47;63.92;;;32.58;;
13611;SDS011;6877;51.436;6.774;2023-04-23T01:21:18;53.00;;;30.83;;
13611;SDS011;6877;51.436;6.774;2023-04-23T01:23:45;55.90;;;28.95;;
13611;SDS011;6877;51.436;6.774;2023-04-23T01:26:11;59.50;;;30.95;;
13611;SDS011;6877;51.436;6.774;2023-04-23T01:28:40;60.33;;;31.50;;
13611;SDS011;6877;51.436;6.774;2023-04-23T01:31:08;64.40;;;31.10;;
13611;SDS011;6877;51.436;6.774;2023-04-23T01:33:35;58.47;;;30.90;;
13611;SDS011;6877;51.436;6.774;2023-04-23T01:36:01;55.28;;;29.75;;
13611;SDS011;6877;51.436;6.774;2023-04-23T01:38:33;49.63;;;26.27;;
13611;SDS011;6877;51.436;6.774;2023-04-23T01:41:01;52.70;;;29.63;;
13611;SDS011;6877;51.436;6.774;2023-04-23T01:43:32;57.15;;;30.75;;
13611;SDS011;6877;51.436;6.774;2023-04-23T01:46:04;57.03;;;29.67;;
13611;SDS011;6877;51.436;6.774;2023-04-23T01:48:35;57.33;;;30.85;;
13611;SDS011;6877;51.436;6.774;2023-04-23T01:51:02;54.72;;;29.60;;
13611;SDS011;6877;51.436;6.774;2023-04-23T01:53:34;54.50;;;26.42;;
13611;SDS011;6877;51.436;6.774;2023-04-23T01:56:05;53.95;;;28.63;;
13611;SDS011;6877;51.436;6.774;2023-04-23T01:58:39;50.55;;;26.58;;
13611;SDS011;6877;51.436;6.774;2023-04-23T02:01:06;59.30;;;29.25;;
13611;SDS011;6877;51.436;6.774;2023-04-23T02:03:39;57.63;;;30.73;;
13611;SDS011;6877;51.436;6.774;2023-04-23T02:06:11;51.35;;;27.60;;
13611;SDS011;6877;51.436;6.774;2023-04-23T02:08:43;52.65;;;27.23;;
13611;SDS011;6877;51.436;6.774;2023-04-23T02:11:14;57.85;;;30.58;;
13611;SDS011;6877;51.436;6.774;2023-04-23T02:13:40;53.17;;;29.60;;
13611;SDS011;6877;51.436;6.774;2023-04-23T02:16:07;54.97;;;29.42;;
13611;SDS011;6877;51.436;6.774;2023-04-23T02:18:33;54.88;;;29.98;;
13611;SDS011;6877;51.436;6.774;2023-04-23T02:21:05;57.70;;;28.30;;
13611;SDS011;6877;51.436;6.774;2023-04-23T02:23:31;56.83;;;30.02;;
13611;SDS011;6877;51.436;6.774;2023-04-23T02:26:02;57.53;;;29.27;;
13611;SDS011;6877;51.436;6.774;2023-04-23T02:28:34;55.45;;;30.17;;
13611;SDS011;6877;51.436;6.774;2023-04-23T02:31:00;56.50;;;29.85;;
13611;SDS011;6877;51.436;6.774;2023-04-23T02:33:31;56.78;;;29.20;;
13611;SDS011;6877;51.436;6.774;2023-04-23T02:35:58;70.00;;;30.23;;
13611;SDS011;6877;51.436;6.774;2023-04-23T02:38:24;58.13;;;29.90;;
13611;SDS011;6877;51.436;6.774;2023-04-23T02:40:56;57.10;;;29.70;;
13611;SDS011;6877;51.436;6.774;2023-04-23T02:43:27;55.95;;;29.88;;
13611;SDS011;6877;51.436;6.774;2023-04-23T02:45:53;56.47;;;30.38;;
13611;SDS011;6877;51.436;6.774;2023-04-23T02:48:20;59.33;;;29.92;;
13611;SDS011;6877;51.436;6.774;2023-04-23T02:50:47;61.35;;;30.88;;
13611;SDS011;6877;51.436;6.774;2023-04-23T02:53:13;52.53;;;29.10;;
13611;SDS011;6877;51.436;6.774;2023-04-23T02:55:40;61.72;;;30.20;;
13611;SDS011;6877;51.436;6.774;2023-04-23T02:58:06;60.80;;;32.38;;
13611;SDS011;6877;51.436;6.774;2023-04-23T03:00:38;57.00;;;29.25;;
13611;SDS011;6877;51.436;6.774;2023-04-23T03:03:04;56.60;;;28.95;;
13611;SDS011;6877;51.436;6.774;2023-04-23T03:05:31;57.67;;;30.20;;
13611;SDS011;6877;51.436;6.774;2023-04-23T03:07:57;63.35;;;32.95;;
13611;SDS011;6877;51.436;6.774;2023-04-23T03:10:24;54.92;;;30.33;;
13611;SDS011;6877;51.436;6.774;2023-04-23T03:12:50;62.88;;;31.67;;
13611;SDS011;6877;51.436;6.774;2023-04-23T03:15:16;60.35;;;30.88;;
13611;SDS011;6877;51.436;6.774;2023-04-23T03:17:48;55.47;;;28.05;;
13611;SDS011;6877;51.436;6.774;2023-04-23T03:20:17;54.72;;;29.25;;
13611;SDS011;6877;51.436;6.774;2023-04-23T03:22:44;62.47;;;29.98;;
13611;SDS011;6877;51.436;6.774;2023-04-23T03:25:11;62.88;;;30.67;;
13611;SDS011;6877;51.436;6.774;2023-04-23T03:27:42;54.65;;;30.98;;
13611;SDS011;6877;51.436;6.774;2023-04-23T03:30:09;55.83;;;30.02;;
13611;SDS011;6877;51.436;6.774;2023-04-23T03:32:36;52.50;;;29.27;;
13611;SDS011;6877;51.436;6.774;2023-04-23T03:35:03;57.33;;;30.40;;
13611;SDS011;6877;51.436;6.774;2023-04-23T03:37:30;51.38;;;29.27;;
13611;SDS011;6877;51.436;6.774;2023-04-23T03:40:02;57.90;;;30.70;;
13611;SDS011;6877;51.436;6.774;2023-04-23T03:42:32;57.35;;;29.77;;
13611;SDS011;6877;51.436;6.774;2023-04-23T03:44:59;57.08;;;30.20;;
13611;SDS011;6877;51.436;6.774;2023-04-23T03:47:26;56.05;;;30.58;;
13611;SDS011;6877;51.436;6.774;2023-04-23T03:49:57;52.53;;;28.90;;
13611;SDS011;6877;51.436;6.774;2023-04-23T03:52:28;59.25;;;29.67;;
13611;SDS011;6877;51.436;6.774;2023-04-23T03:55:00;56.00;;;30.45;;
13611;SDS011;6877;51.436;6.774;2023-04-23T03:57:28;56.15;;;28.90;;
13611;SDS011;6877;51.436;6.774;2023-04-23T03:59:54;55.08;;;30.85;;
13611;SDS011;6877;51.436;6.774;2023-04-23T04:02:21;57.40;;;28.50;;
13611;SDS011;6877;51.436;6.774;2023-04-23T04:04:47;53.97;;;28.65;;
13611;SDS011;6877;51.436;6.774;2023-04-23T04:07:16;61.50;;;32.03;;
13611;SDS011;6877;51.436;6.774;2023-04-23T04:09:43;57.15;;;28.65;;
13611;SDS011;6877;51.436;6.774;2023-04-23T04:12:09;56.78;;;28.98;;
13611;SDS011;6877;51.436;6.774;2023-04-23T04:14:39;71.30;;;32.55;;
13611;SDS011;6877;51.436;6.774;2023-04-23T04:17:11;57.45;;;29.90;;
13611;SDS011;6877;51.436;6.774;2023-04-23T04:19:37;56.40;;;28.50;;
13611;SDS011;6877;51.436;6.774;2023-04-23T04:22:04;56.72;;;31.35;;
13611;SDS011;6877;51.436;6.774;2023-04-23T04:24:31;61.70;;;31.77;;
13611;SDS011;6877;51.436;6.774;2023-04-23T04:27:03;67.68;;;32.88;;
13611;SDS011;6877;51.436;6.774;2023-04-23T04:29:36;66.57;;;34.03;;
13611;SDS011;6877;51.436;6.774;2023-04-23T04:32:02;59.63;;;31.52;;
13611;SDS011;6877;51.436;6.774;2023-04-23T04:34:30;56.45;;;30.25;;
13611;SDS011;6877;51.436;6.774;2023-04-23T04:36:56;60.28;;;33.17;;
13611;SDS011;6877;51.436;6.774;2023-04-23T04:39:23;62.65;;;32.60;;
13611;SDS011;6877;51.436;6.774;2023-04-23T04:41:49;57.17;;;30.45;;
13611;SDS011;6877;51.436;6.774;2023-04-23T04:44:16;64.68;;;33.35;;
13611;SDS011;6877;51.436;6.774;2023-04-23T04:46:42;63.63;;;31.70;;
13611;SDS011;6877;51.436;6.774;2023-04-23T04:49:09;63.13;;;31.73;;
13611;SDS011;6877;51.436;6.774;2023-04-23T04:51:36;62.30;;;31.10;;
13611;SDS011;6877;51.436;6.774;2023-04-23T04:54:04;54.83;;;29.80;;
13611;SDS011;6877;51.436;6.774;2023-04-23T04:56:32;63.17;;;32.25;;
13611;SDS011;6877;51.436;6.774;2023-04-23T04:58:59;58.97;;;30.67;;
13611;SDS011;6877;51.436;6.774;2023-04-23T05:01:31;59.20;;;31.63;;
13611;SDS011;6877;51.436;6.774;2023-04-23T05:03:58;62.50;;;32.92;;
13611;SDS011;6877;51.436;6.774;2023-04-23T05:06:24;63.45;;;31.17;;
13611;SDS011;6877;51.436;6.774;2023-04-23T05:08:51;58.45;;;33.05;;
13611;SDS011;6877;51.436;6.774;2023-04-23T05:11:22;55.40;;;29.80;;
13611;SDS011;6877;51.436;6.774;2023-04-23T05:13:49;53.35;;;30.50;;
13611;SDS011;6877;51.436;6.774;2023-04-23T05:16:17;51.35;;;27.90;;
13611;SDS011;6877;51.436;6.774;2023-04-23T05:18:44;48.67;;;27.67;;
13611;SDS011;6877;51.436;6.774;2023-04-23T05:21:11;50.05;;;28.10;;
13611;SDS011;6877;51.436;6.774;2023-04-23T05:23:37;44.58;;;27.08;;
13611;SDS011;6877;51.436;6.774;2023-04-23T05:26:09;42.03;;;26.70;;
13611;SDS011;6877;51.436;6.774;2023-04-23T05:28:36;41.55;;;24.98;;
13611;SDS011;6877;51.436;6.774;2023-04-23T05:31:02;42.40;;;24.25;;
13611;SDS011;6877;51.436;6.774;2023-04-23T05:33:29;39.30;;;23.75;;
13611;SDS011;6877;51.436;6.774;2023-04-23T05:36:02;40.58;;;23.45;;
13611;SDS011;6877;51.436;6.774;2023-04-23T05:38:28;36.85;;;22.95;;
13611;SDS011;6877;51.436;6.774;2023-04-23T05:40:58;35.17;;;21.38;;
13611;SDS011;6877;51.436;6.774;2023-04-23T05:43:24;34.17;;;20.33;;
13611;SDS011;6877;51.436;6.774;2023-04-23T05:45:55;33.38;;;19.63;;
13611;SDS011;6877;51.436;6.774;2023-04-23T05:48:27;31.98;;;18.80;;
13611;SDS011;6877;51.436;6.774;2023-04-23T05:50:53;32.03;;;20.80;;
13611;SDS011;6877;51.436;6.774;2023-04-23T05:53:24;32.97;;;19.90;;
13611;SDS011;6877;51.436;6.774;2023-04-23T05:55:52;35.17;;;21.45;;
13611;SDS011;6877;51.436;6.774;2023-04-23T05:58:19;33.20;;;17.77;;
13611;SDS011;6877;51.436;6.774;2023-04-23T06:00:45;33.42;;;19.95;;
13611;SDS011;6877;51.436;6.774;2023-04-23T06:03:12;34.53;;;20.23;;
13611;SDS011;6877;51.436;6.774;2023-04-23T06:05:38;29.08;;;19.02;;
13611;SDS011;6877;51.436;6.774;2023-04-23T06:08:04;35.58;;;18.73;;
13611;SDS011;6877;51.436;6.774;2023-04-23T06:10:31;34.05;;;20.23;;
13611;SDS011;6877;51.436;6.774;2023-04-23T06:13:02;36.60;;;21.52;;
13611;SDS011;6877;51.436;6.774;2023-04-23T06:15:29;31.17;;;19.88;;
13611;SDS011;6877;51.436;6.774;2023-04-23T06:17:55;30.60;;;18.60;;
13611;SDS011;6877;51.436;6.774;2023-04-23T06:20:27;35.67;;;20.45;;
13611;SDS011;6877;51.436;6.774;2023-04-23T06:22:54;35.22;;;19.67;;
13611;SDS011;6877;51.436;6.774;2023-04-23T06:25:20;33.78;;;20.13;;
13611;SDS011;6877;51.436;6.774;2023-04-23T06:27:52;29.30;;;19.10;;
13611;SDS011;6877;51.436;6.774;2023-04-23T06:30:23;32.40;;;19.27;;
13611;SDS011;6877;51.436;6.774;2023-04-23T06:32:54;27.65;;;17.80;;
13611;SDS011;6877;51.436;6.774;2023-04-23T06:35:26;28.35;;;17.58;;
13611;SDS011;6877;51.436;6.774;2023-04-23T06:37:52;30.48;;;18.70;;
13611;SDS011;6877;51.436;6.774;2023-04-23T06:40:19;31.20;;;18.13;;
13611;SDS011;6877;51.436;6.774;2023-04-23T06:42:45;27.80;;;17.35;;
13611;SDS011;6877;51.436;6.774;2023-04-23T06:45:17;30.90;;;18.95;;
13611;SDS011;6877;51.436;6.774;2023-04-23T06:47:44;28.20;;;15.93;;
13611;SDS011;6877;51.436;6.774;2023-04-23T06:50:11;33.03;;;19.15;;
13611;SDS011;6877;51.436;6.774;2023-04-23T06:52:37;25.45;;;16.98;;
13611;SDS011;6877;51.436;6.774;2023-04-23T06:55:09;27.05;;;17.13;;
13611;SDS011;6877;51.436;6.774;2023-04-23T06:57:35;29.85;;;18.52;;
13611;SDS011;6877;51.436;6.774;2023-04-23T07:00:04;24.85;;;15.10;;
13611;SDS011;6877;51.436;6.774;2023-04-23T07:02:39;25.90;;;15.45;;
13611;SDS011;6877;51.436;6.774;2023-04-23T07:05:10;23.70;;;15.90;;
13611;SDS011;6877;51.436;6.774;2023-04-23T07:07:36;22.35;;;14.15;;
13611;SDS011;6877;51.436;6.774;2023-04-23T07:10:08;21.88;;;12.82;;
13611;SDS011;6877;51.436;6.774;2023-04-23T07:12:38;19.67;;;12.02;;
13611;SDS011;6877;51.436;6.774;2023-04-23T07:15:11;18.98;;;11.38;;
13611;SDS011;6877;51.436;6.774;2023-04-23T07:17:42;16.15;;;10.45;;
13611;SDS011;6877;51.436;6.774;2023-04-23T07:20:08;15.60;;;11.45;;
13611;SDS011;6877;51.436;6.774;2023-04-23T07:22:35;13.20;;;9.55;;
13611;SDS011;6877;51.436;6.774;2023-04-23T07:25:01;17.27;;;11.30;;
13611;SDS011;6877;51.436;6.774;2023-04-23T07:27:34;13.25;;;9.70;;
13611;SDS011;6877;51.436;6.774;2023-04-23T07:30:01;13.35;;;9.38;;
13611;SDS011;6877;51.436;6.774;2023-04-23T07:32:27;13.25;;;8.88;;
13611;SDS011;6877;51.436;6.774;2023-04-23T07:34:59;15.20;;;9.40;;
13611;SDS011;6877;51.436;6.774;2023-04-23T07:37:25;13.98;;;8.80;;
13611;SDS011;6877;51.436;6.774;2023-04-23T07:39:52;15.43;;;8.77;;
13611;SDS011;6877;51.436;6.774;2023-04-23T07:42:19;15.45;;;8.82;;
13611;SDS011;6877;51.436;6.774;2023-04-23T07:44:45;12.15;;;8.63;;
13611;SDS011;6877;51.436;6.774;2023-04-23T07:47:12;13.13;;;7.80;;
13611;SDS011;6877;51.436;6.774;2023-04-23T07:49:43;14.57;;;7.63;;
13611;SDS011;6877;51.436;6.774;2023-04-23T07:52:10;10.85;;;7.25;;
13611;SDS011;6877;51.436;6.774;2023-04-23T07:54:36;8.63;;;6.22;;
13611;SDS011;6877;51.436;6.774;2023-04-23T07:57:02;9.40;;;5.70;;
13611;SDS011;6877;51.436;6.774;2023-04-23T07:59:29;7.93;;;5.88;;
13611;SDS011;6877;51.436;6.774;2023-04-23T08:01:55;7.00;;;5.63;;
13611;SDS011;6877;51.436;6.774;2023-04-23T08:04:27;6.72;;;5.03;;
13611;SDS011;6877;51.436;6.774;2023-04-23T08:06:53;6.47;;;4.35;;
13611;SDS011;6877;51.436;6.774;2023-04-23T08:09:20;7.40;;;4.75;;
13611;SDS011;6877;51.436;6.774;2023-04-23T08:11:46;10.70;;;4.55;;
13611;SDS011;6877;51.436;6.774;2023-04-23T08:14:13;6.90;;;4.53;;
13611;SDS011;6877;51.436;6.774;2023-04-23T08:16:39;4.43;;;3.55;;
13611;SDS011;6877;51.436;6.774;2023-04-23T08:19:06;4.97;;;4.18;;
13611;SDS011;6877;51.436;6.774;2023-04-23T08:21:34;8.30;;;3.95;;
13611;SDS011;6877;51.436;6.774;2023-04-23T08:24:01;4.05;;;3.20;;
13611;SDS011;6877;51.436;6.774;2023-04-23T08:26:36;6.55;;;3.42;;
13611;SDS011;6877;51.436;6.774;2023-04-23T08:29:04;5.15;;;3.13;;
13611;SDS011;6877;51.436;6.774;2023-04-23T08:31:31;5.25;;;3.13;;
13611;SDS011;6877;51.436;6.774;2023-04-23T08:33:57;6.18;;;3.70;;
13611;SDS011;6877;51.436;6.774;2023-04-23T08:36:24;4.72;;;3.20;;
13611;SDS011;6877;51.436;6.774;2023-04-23T08:38:51;7.35;;;3.25;;
13611;SDS011;6877;51.436;6.774;2023-04-23T08:41:18;4.47;;;2.47;;
13611;SDS011;6877;51.436;6.774;2023-04-23T08:43:53;5.30;;;2.70;;
13611;SDS011;6877;51.436;6.774;2023-04-23T08:46:32;3.53;;;2.72;;
13611;SDS011;6877;51.436;6.774;2023-04-23T08:49:07;5.65;;;3.63;;
13611;SDS011;6877;51.436;6.774;2023-04-23T08:51:53;3.80;;;2.70;;
13611;SDS011;6877;51.436;6.774;2023-04-23T08:54:27;4.47;;;2.50;;
13611;SDS011;6877;51.436;6.774;2023-04-23T08:56:54;7.05;;;3.40;;
13611;SDS011;6877;51.436;6.774;2023-04-23T08:59:24;4.55;;;2.63;;
13611;SDS011;6877;51.436;6.774;2023-04-23T09:01:56;3.88;;;2.70;;
13611;SDS011;6877;51.436;6.774;2023-04-23T09:04:29;3.50;;;2.38;;
13611;SDS011;6877;51.436;6.774;2023-04-23T09:06:56;4.50;;;2.65;;
13611;SDS011;6877;51.436;6.774;2023-04-23T09:09:23;6.35;;;2.80;;
13611;SDS011;6877;51.436;6.774;2023-04-23T09:11:54;4.85;;;3.05;;
13611;SDS011;6877;51.436;6.774;2023-04-23T09:14:24;8.30;;;3.75;;
13611;SDS011;6877;51.436;6.774;2023-04-23T09:16:51;5.10;;;3.15;;
13611;SDS011;6877;51.436;6.774;2023-04-23T09:19:18;4.93;;;2.72;;
13611;SDS011;6877;51.436;6.774;2023-04-23T09:21:44;6.22;;;2.83;;
13611;SDS011;6877;51.436;6.774;2023-04-23T09:24:11;4.90;;;2.42;;
13611;SDS011;6877;51.436;6.774;2023-04-23T09:26:46;5.32;;;2.00;;
13611;SDS011;6877;51.436;6.774;2023-04-23T09:29:22;4.90;;;2.42;;
13611;SDS011;6877;51.436;6.774;2023-04-23T09:31:50;5.85;;;2.42;;
13611;SDS011;6877;51.436;6.774;2023-04-23T09:34:21;3.72;;;2.10;;
13611;SDS011;6877;51.436;6.774;2023-04-23T09:36:50;3.83;;;2.05;;
13611;SDS011;6877;51.436;6.774;2023-04-23T09:39:19;10.30;;;2.67;;
13611;SDS011;6877;51.436;6.774;2023-04-23T09:41:48;4.88;;;2.05;;
13611;SDS011;6877;51.436;6.774;2023-04-23T09:44:17;4.47;;;2.10;;
13611;SDS011;6877;51.436;6.774;2023-04-23T09:46:44;5.32;;;1.98;;
13611;SDS011;6877;51.436;6.774;2023-04-23T09:49:11;8.38;;;2.67;;
13611;SDS011;6877;51.436;6.774;2023-04-23T09:51:39;3.40;;;2.80;;
13611;SDS011;6877;51.436;6.774;2023-04-23T09:54:09;4.78;;;2.58;;
13611;SDS011;6877;51.436;6.774;2023-04-23T09:56:41;6.05;;;3.03;;
13611;SDS011;6877;51.436;6.774;2023-04-23T09:59:24;5.47;;;2.60;;
13611;SDS011;6877;51.436;6.774;2023-04-23T10:01:52;6.93;;;2.20;;
13611;SDS011;6877;51.436;6.774;2023-04-23T10:04:24;4.70;;;2.33;;
13611;SDS011;6877;51.436;6.774;2023-04-23T10:06:54;5.03;;;2.45;;
13611;SDS011;6877;51.436;6.774;2023-04-23T10:09:27;7.13;;;2.10;;
13611;SDS011;6877;51.436;6.774;2023-04-23T10:11:55;6.00;;;2.13;;
13611;SDS011;6877;51.436;6.774;2023-04-23T10:14:24;2.63;;;1.90;;
13611;SDS011;6877;51.436;6.774;2023-04-23T10:16:53;2.33;;;1.58;;
13611;SDS011;6877;51.436;6.774;2023-04-23T10:19:30;5.47;;;2.63;;
13611;SDS011;6877;51.436;6.774;2023-04-23T10:22:05;5.68;;;2.50;;
13611;SDS011;6877;51.436;6.774;2023-04-23T10:24:36;2.65;;;2.40;;
13611;SDS011;6877;51.436;6.774;2023-04-23T10:27:07;5.45;;;3.13;;
13611;SDS011;6877;51.436;6.774;2023-04-23T10:29:36;8.18;;;2.90;;
13611;SDS011;6877;51.436;6.774;2023-04-23T10:32:08;3.35;;;2.15;;
13611;SDS011;6877;51.436;6.774;2023-04-23T10:34:36;2.67;;;2.28;;
13611;SDS011;6877;51.436;6.774;2023-04-23T10:37:05;4.38;;;2.60;;
13611;SDS011;6877;51.436;6.774;2023-04-23T10:39:33;5.57;;;2.40;;
13611;SDS011;6877;51.436;6.774;2023-04-23T10:42:06;5.05;;;2.38;;
13611;SDS011;6877;51.436;6.774;2023-04-23T10:44:33;6.00;;;2.30;;
13611;SDS011;6877;51.436;6.774;2023-04-23T10:47:11;4.80;;;2.35;;
13611;SDS011;6877;51.436;6.774;2023-04-23T10:49:39;5.18;;;2.83;;
13611;SDS011;6877;51.436;6.774;2023-04-23T10:52:08;4.38;;;2.13;;
13611;SDS011;6877;51.436;6.774;2023-04-23T10:54:41;7.35;;;2.85;;
13611;SDS011;6877;51.436;6.774;2023-04-23T10:57:09;3.63;;;2.47;;
13611;SDS011;6877;51.436;6.774;2023-04-23T10:59:40;6.30;;;1.95;;
13611;SDS011;6877;51.436;6.774;2023-04-23T11:02:16;11.95;;;2.35;;
13611;SDS011;6877;51.436;6.774;2023-04-23T11:04:52;3.63;;;2.13;;
13611;SDS011;6877;51.436;6.774;2023-04-23T11:07:25;6.72;;;2.25;;
13611;SDS011;6877;51.436;6.774;2023-04-23T11:09:58;4.28;;;2.75;;
13611;SDS011;6877;51.436;6.774;2023-04-23T11:14:57;5.68;;;2.47;;
13611;SDS011;6877;51.436;6.774;2023-04-23T11:22:42;5.15;;;2.30;;
13611;SDS011;6877;51.436;6.774;2023-04-23T11:25:15;3.35;;;1.73;;
13611;SDS011;6877;51.436;6.774;2023-04-23T11:27:46;7.97;;;2.63;;
13611;SDS011;6877;51.436;6.774;2023-04-23T11:30:14;3.38;;;2.05;;
13611;SDS011;6877;51.436;6.774;2023-04-23T11:32:47;3.13;;;2.45;;
13611;SDS011;6877;51.436;6.774;2023-04-23T11:35:19;4.68;;;2.22;;
13611;SDS011;6877;51.436;6.774;2023-04-23T11:37:53;6.82;;;1.77;;
13611;SDS011;6877;51.436;6.774;2023-04-23T11:40:20;3.50;;;1.95;;
13611;SDS011;6877;51.436;6.774;2023-04-23T11:42:47;2.25;;;1.73;;
13611;SDS011;6877;51.436;6.774;2023-04-23T11:45:23;6.35;;;2.15;;
13611;SDS011;6877;51.436;6.774;2023-04-23T11:47:56;3.58;;;2.38;;
13611;SDS011;6877;51.436;6.774;2023-04-23T11:50:29;3.45;;;1.73;;
13611;SDS011;6877;51.436;6.774;2023-04-23T11:53:03;4.68;;;2.13;;
13611;SDS011;6877;51.436;6.774;2023-04-23T11:55:33;6.97;;;1.65;;
13611;SDS011;6877;51.436;6.774;2023-04-23T11:58:00;7.82;;;2.55;;
13611;SDS011;6877;51.436;6.774;2023-04-23T12:00:31;3.33;;;1.50;;
13611;SDS011;6877;51.436;6.774;2023-04-23T12:02:58;3.58;;;1.65;;
13611;SDS011;6877;51.436;6.774;2023-04-23T12:05:39;5.10;;;2.08;;
13611;SDS011;6877;51.436;6.774;2023-04-23T12:08:07;2.55;;;1.60;;
13611;SDS011;6877;51.436;6.774;2023-04-23T12:10:51;6.30;;;2.85;;
13611;SDS011;6877;51.436;6.774;2023-04-23T12:13:24;1.48;;;1.38;;
13611;SDS011;6877;51.436;6.774;2023-04-23T12:15:56;2.65;;;1.52;;
13611;SDS011;6877;51.436;6.774;2023-04-23T12:18:33;1.92;;;1.30;;
13611;SDS011;6877;51.436;6.774;2023-04-23T12:21:10;5.63;;;2.65;;
13611;SDS011;6877;51.436;6.774;2023-04-23T12:23:39;3.15;;;1.60;;
13611;SDS011;6877;51.436;6.774;2023-04-23T12:26:10;6.70;;;1.60;;
13611;SDS011;6877;51.436;6.774;2023-04-23T12:28:49;7.00;;;2.10;;
13611;SDS011;6877;51.436;6.774;2023-04-23T12:31:24;8.98;;;2.05;;
13611;SDS011;6877;51.436;6.774;2023-04-23T12:36:33;5.55;;;1.70;;
13611;SDS011;6877;51.436;6.774;2023-04-23T12:41:53;3.38;;;1.42;;
13611;SDS011;6877;51.436;6.774;2023-04-23T12:44:22;3.42;;;1.65;;
13611;SDS011;6877;51.436;6.774;2023-04-23T12:46:59;4.85;;;1.83;;
13611;SDS011;6877;51.436;6.774;2023-04-23T12:49:31;4.47;;;1.52;;
13611;SDS011;6877;51.436;6.774;2023-04-23T12:51:58;4.05;;;1.83;;
13611;SDS011;6877;51.436;6.774;2023-04-23T12:54:28;2.08;;;1.80;;
13611;SDS011;6877;51.436;6.774;2023-04-23T12:56:56;6.00;;;2.45;;
13611;SDS011;6877;51.436;6.774;2023-04-23T12:59:28;6.72;;;1.52;;
13611;SDS011;6877;51.436;6.774;2023-04-23T13:02:00;3.10;;;1.58;;
13611;SDS011;6877;51.436;6.774;2023-04-23T13:04:28;3.55;;;1.90;;
13611;SDS011;6877;51.436;6.774;2023-04-23T13:06:56;5.57;;;1.30;;
13611;SDS011;6877;51.436;6.774;2023-04-23T13:09:22;3.13;;;1.67;;
13611;SDS011;6877;51.436;6.774;2023-04-23T13:11:49;4.00;;;1.20;;
13611;SDS011;6877;51.436;6.774;2023-04-23T13:14:16;7.47;;;1.52;;
13611;SDS011;6877;51.436;6.774;2023-04-23T13:16:48;4.38;;;1.73;;
13611;SDS011;6877;51.436;6.774;2023-04-23T13:19:14;2.03;;;1.40;;
13611;SDS011;6877;51.436;6.774;2023-04-23T13:21:41;8.77;;;1.88;;
13611;SDS011;6877;51.436;6.774;2023-04-23T13:24:08;4.05;;;1.40;;
13611;SDS011;6877;51.436;6.774;2023-04-23T13:26:39;4.30;;;1.40;;
13611;SDS011;6877;51.436;6.774;2023-04-23T13:29:05;2.92;;;1.85;;
13611;SDS011;6877;51.436;6.774;2023-04-23T13:31:37;5.03;;;2.08;;
13611;SDS011;6877;51.436;6.774;2023-04-23T13:34:03;2.58;;;1.77;;
13611;SDS011;6877;51.436;6.774;2023-04-23T13:36:30;4.07;;;1.70;;
13611;SDS011;6877;51.436;6.774;2023-04-23T13:38:56;2.75;;;1.48;;
13611;SDS011;6877;51.436;6.774;2023-04-23T13:41:22;5.40;;;1.40;;
13611;SDS011;6877;51.436;6.774;2023-04-23T13:43:49;5.18;;;1.83;;
13611;SDS011;6877;51.436;6.774;2023-04-23T13:46:20;1.70;;;1.40;;
13611;SDS011;6877;51.436;6.774;2023-04-23T13:48:52;6.47;;;2.05;;
13611;SDS011;6877;51.436;6.774;2023-04-23T13:51:19;4.90;;;1.33;;
13611;SDS011;6877;51.436;6.774;2023-04-23T13:53:45;3.22;;;1.60;;
13611;SDS011;6877;51.436;6.774;2023-04-23T13:56:17;3.05;;;1.50;;
13611;SDS011;6877;51.436;6.774;2023-04-23T13:58:43;5.15;;;1.50;;
13611;SDS011;6877;51.436;6.774;2023-04-23T14:01:12;5.65;;;1.60;;
13611;SDS011;6877;51.436;6.774;2023-04-23T14:03:40;5.13;;;1.33;;
13611;SDS011;6877;51.436;6.774;2023-04-23T14:06:07;6.35;;;1.52;;
13611;SDS011;6877;51.436;6.774;2023-04-23T14:08:38;6.00;;;1.83;;
13611;SDS011;6877;51.436;6.774;2023-04-23T14:11:10;3.90;;;2.00;;
13611;SDS011;6877;51.436;6.774;2023-04-23T14:13:41;4.10;;;1.50;;
13611;SDS011;6877;51.436;6.774;2023-04-23T14:16:10;5.22;;;1.80;;
13611;SDS011;6877;51.436;6.774;2023-04-23T14:18:42;2.92;;;1.55;;
13611;SDS011;6877;51.436;6.774;2023-04-23T14:21:08;4.80;;;1.75;;
13611;SDS011;6877;51.436;6.774;2023-04-23T14:26:19;5.72;;;1.30;;
13611;SDS011;6877;51.436;6.774;2023-04-23T14:28:57;4.85;;;2.28;;
13611;SDS011;6877;51.436;6.774;2023-04-23T14:31:28;3.95;;;1.33;;
13611;SDS011;6877;51.436;6.774;2023-04-23T14:34:00;3.13;;;1.63;;
13611;SDS011;6877;51.436;6.774;2023-04-23T14:36:32;2.50;;;1.40;;
13611;SDS011;6877;51.436;6.774;2023-04-23T14:39:03;3.47;;;1.70;;
13611;SDS011;6877;51.436;6.774;2023-04-23T14:41:30;2.80;;;1.38;;
13611;SDS011;6877;51.436;6.774;2023-04-23T14:43:58;1.67;;;1.50;;
13611;SDS011;6877;51.436;6.774;2023-04-23T14:46:31;5.28;;;1.77;;
13611;SDS011;6877;51.436;6.774;2023-04-23T14:48:57;3.17;;;1.85;;
13611;SDS011;6877;51.436;6.774;2023-04-23T14:51:24;3.05;;;1.50;;
13611;SDS011;6877;51.436;6.774;2023-04-23T14:53:50;5.22;;;1.60;;
13611;SDS011;6877;51.436;6.774;2023-04-23T14:56:21;2.95;;;1.88;;
13611;SDS011;6877;51.436;6.774;2023-04-23T14:58:53;11.32;;;1.77;;
13611;SDS011;6877;51.436;6.774;2023-04-23T15:01:19;10.52;;;1.65;;
13611;SDS011;6877;51.436;6.774;2023-04-23T15:03:51;4.82;;;1.50;;
13611;SDS011;6877;51.436;6.774;2023-04-23T15:06:17;2.50;;;1.52;;
13611;SDS011;6877;51.436;6.774;2023-04-23T15:08:44;7.43;;;1.95;;
13611;SDS011;6877;51.436;6.774;2023-04-23T15:11:11;1.73;;;1.30;;
13611;SDS011;6877;51.436;6.774;2023-04-23T15:13:48;4.10;;;1.52;;
13611;SDS011;6877;51.436;6.774;2023-04-23T15:16:25;1.33;;;1.23;;